createdAt,value
2023-04-20T00:02:34.316Z,3.67
2023-04-20T00:07:41.527Z,2.83
2023-04-20T00:12:44.874Z,3.28
2023-04-20T00:17:48.713Z,4.22
2023-04-20T00:22:53.354Z,4.97
2023-04-20T00:27:56.579Z,4.13
2023-04-20T00:32:59.916Z,4.07
2023-04-20T00:38:04.596Z,4.00
2023-04-20T00:43:11.995Z,3.47
2023-04-20T00:48:15.306Z,3.80
2023-04-20T00:53:20.400Z,4.03
2023-04-20T00:58:25.564Z,3.65
2023-04-20T01:03:29.016Z,3.80
2023-04-20T01:08:33.626Z,3.60
2023-04-20T01:13:40.550Z,4.72
2023-04-20T01:18:46.560Z,4.20
2023-04-20T01:23:51.409Z,5.10
2023-04-20T01:28:54.656Z,4.03
2023-04-20T01:33:57.897Z,3.53
2023-04-20T01:39:02.646Z,4.07
2023-04-20T01:44:06.034Z,3.00
2023-04-20T01:49:10.071Z,3.63
2023-04-20T01:54:15.045Z,2.47
2023-04-20T01:59:18.467Z,9.75
2023-04-20T02:04:22.076Z,2.95
2023-04-20T02:09:27.137Z,3.30
2023-04-20T02:14:30.486Z,3.47
2023-04-20T02:19:34.776Z,2.83
2023-04-20T02:24:39.462Z,4.82
2023-04-20T02:29:42.735Z,4.38
2023-04-20T02:34:46.298Z,4.25
2023-04-20T02:39:51.229Z,3.30
2023-04-20T02:44:54.486Z,3.53
2023-04-20T02:49:58.018Z,4.30
2023-04-20T02:55:02.725Z,6.50
2023-04-20T03:00:08.863Z,4.50
2023-04-20T03:05:28.723Z,6.18
2023-04-20T03:10:33.627Z,4.70
2023-04-20T03:15:48.565Z,4.32
2023-04-20T03:21:08.291Z,5.15
2023-04-20T03:26:13.598Z,4.93
2023-04-20T03:31:25.678Z,6.15
2023-04-20T03:36:32.045Z,5.10
2023-04-20T03:41:37.196Z,5.47
2023-04-20T03:46:41.138Z,5.25
2023-04-20T03:51:44.417Z,5.43
2023-04-20T03:56:49.767Z,3.55
2023-04-20T04:01:54.257Z,6.20
2023-04-20T04:06:57.741Z,4.00
2023-04-20T04:12:04.687Z,5.27
2023-04-20T04:17:08.873Z,5.07
2023-04-20T04:22:16.625Z,6.13
2023-04-20T04:27:39.913Z,6.22
2023-04-20T04:32:44.725Z,7.13
2023-04-20T04:37:48.950Z,6.30
2023-04-20T04:42:55.691Z,5.80
2023-04-20T04:47:59.970Z,6.27
2023-04-20T04:53:03.290Z,6.73
2023-04-20T04:58:08.138Z,7.15
2023-04-20T05:03:11.885Z,8.03
2023-04-20T05:08:15.207Z,6.10
2023-04-20T05:13:19.718Z,7.43
2023-04-20T05:18:24.204Z,7.43
2023-04-20T05:23:27.485Z,7.40
2023-04-20T05:28:32.092Z,5.30
2023-04-20T05:33:35.388Z,5.80
2023-04-20T05:38:38.857Z,6.93
2023-04-20T05:43:43.493Z,6.57
2023-04-20T05:48:46.817Z,7.30
2023-04-20T05:53:50.041Z,8.13
2023-04-20T05:58:55.088Z,8.73
2023-04-20T06:03:58.567Z,6.47
2023-04-20T06:09:02.095Z,7.10
2023-04-20T06:14:06.699Z,7.05
2023-04-20T06:19:09.944Z,9.18
2023-04-20T06:24:13.202Z,7.40
2023-04-20T06:29:17.943Z,8.00
2023-04-20T06:34:21.209Z,5.03
2023-04-20T06:39:25.224Z,4.15
2023-04-20T06:44:29.815Z,5.68
2023-04-20T06:49:33.076Z,5.80
2023-04-20T06:54:36.364Z,5.38
2023-04-20T06:59:41.245Z,7.82
2023-04-20T07:04:44.872Z,8.38
2023-04-20T07:09:48.086Z,9.25
2023-04-20T07:14:52.946Z,7.88
2023-04-20T07:19:56.511Z,6.60
2023-04-20T07:24:59.819Z,7.88
2023-04-20T07:30:06.427Z,7.40
2023-04-20T07:35:10.586Z,7.90
2023-04-20T07:40:14.108Z,8.07
2023-04-20T07:45:18.682Z,7.63
2023-04-20T07:50:22.435Z,7.53
2023-04-20T07:55:25.871Z,6.82
2023-04-20T08:00:30.814Z,6.47
2023-04-20T08:05:34.251Z,8.90
2023-04-20T08:10:38.159Z,7.25
2023-04-20T08:15:43.213Z,10.77
2023-04-20T08:20:47.145Z,6.32
2023-04-20T08:25:50.597Z,8.27
2023-04-20T08:30:55.584Z,7.15
2023-04-20T08:36:00.989Z,9.68
2023-04-20T08:41:04.369Z,6.30
2023-04-20T08:46:09.949Z,8.13
2023-04-20T08:51:16.065Z,6.85
2023-04-20T08:56:20.319Z,7.93
2023-04-20T09:01:35.603Z,8.23
2023-04-20T09:06:45.136Z,8.98
2023-04-20T09:11:48.784Z,6.97
2023-04-20T09:16:54.406Z,7.55
2023-04-20T09:21:59.146Z,9.10
2023-04-20T09:27:03.173Z,7.75
2023-04-20T09:32:07.975Z,4.95
2023-04-20T09:37:11.748Z,3.13
2023-04-20T09:42:16.593Z,3.88
2023-04-20T09:47:26.049Z,4.75
2023-04-20T09:52:29.405Z,4.75
2023-04-20T09:57:33.701Z,5.38
2023-04-20T10:02:38.905Z,5.05
2023-04-20T10:07:42.257Z,9.07
2023-04-20T10:12:49.380Z,7.93
2023-04-20T10:17:55.125Z,5.63
2023-04-20T10:23:09.737Z,5.85
2023-04-20T10:28:13.196Z,6.93
2023-04-20T10:33:18.275Z,13.10
2023-04-20T10:38:30.680Z,14.57
2023-04-20T10:43:35.358Z,6.10
2023-04-20T10:48:40.694Z,6.63
2023-04-20T10:53:43.870Z,4.55
2023-04-20T10:58:47.254Z,6.60
2023-04-20T11:03:54.869Z,8.23
2023-04-20T11:08:58.269Z,6.90
2023-04-20T11:14:08.782Z,7.78
2023-04-20T11:19:13.446Z,7.05
2023-04-20T11:24:20.901Z,6.28
2023-04-20T11:29:33.216Z,6.15
2023-04-20T11:34:39.965Z,5.45
2023-04-20T11:39:44.264Z,6.57
2023-04-20T11:44:47.471Z,6.20
2023-04-20T11:49:52.278Z,7.63
2023-04-20T11:54:55.557Z,6.57
2023-04-20T11:59:58.749Z,6.20
2023-04-20T12:05:03.767Z,5.95
2023-04-20T12:10:08.588Z,6.75
2023-04-20T12:15:12.913Z,5.95
2023-04-20T12:20:17.509Z,7.22
2023-04-20T12:25:21.011Z,4.88
2023-04-20T12:30:24.496Z,5.80
2023-04-20T12:35:29.171Z,5.40
2023-04-20T12:40:32.654Z,5.50
2023-04-20T12:45:36.231Z,4.55
2023-04-20T12:50:41.262Z,4.82
2023-04-20T12:55:44.618Z,5.00
2023-04-20T13:00:47.946Z,4.25
2023-04-20T13:05:52.554Z,5.40
2023-04-20T13:10:55.802Z,5.50
2023-04-20T13:15:59.163Z,4.97
2023-04-20T13:21:04.082Z,4.40
2023-04-20T13:26:08.714Z,3.13
2023-04-20T13:31:11.980Z,2.63
2023-04-20T13:36:16.705Z,3.05
2023-04-20T13:41:20.339Z,3.33
2023-04-20T13:46:23.648Z,2.67
2023-04-20T13:51:28.867Z,2.85
2023-04-20T13:56:32.026Z,2.70
2023-04-20T14:01:35.444Z,3.00
2023-04-20T14:06:40.266Z,2.80
2023-04-20T14:11:43.799Z,3.75
2023-04-20T14:16:47.994Z,4.20
2023-04-20T14:21:52.697Z,6.40
2023-04-20T14:26:56.820Z,4.10
2023-04-20T14:32:00.201Z,4.10
2023-04-20T14:37:04.918Z,5.90
2023-04-20T14:42:08.725Z,3.92
2023-04-20T14:47:11.957Z,5.50
2023-04-20T14:52:16.596Z,7.32
2023-04-20T14:57:21.850Z,4.15
2023-04-20T15:02:25.585Z,4.80
2023-04-20T15:07:30.401Z,5.93
2023-04-20T15:12:33.552Z,4.70
2023-04-20T15:17:36.896Z,5.10
2023-04-20T15:22:41.524Z,5.32
2023-04-20T15:27:44.907Z,4.10
2023-04-20T15:32:48.168Z,4.35
2023-04-20T15:37:52.914Z,4.55
2023-04-20T15:42:56.156Z,3.75
2023-04-20T15:48:00.987Z,5.47
2023-04-20T15:53:07.509Z,5.25
2023-04-20T15:58:11.075Z,4.88
2023-04-20T16:03:14.616Z,4.88
2023-04-20T16:08:21.187Z,4.57
2023-04-20T16:13:26.146Z,4.40
2023-04-20T16:18:30.023Z,5.22
2023-04-20T16:23:34.789Z,4.45
2023-04-20T16:28:38.228Z,4.53
2023-04-20T16:33:41.656Z,3.97
2023-04-20T16:38:46.732Z,5.35
2023-04-20T16:43:52.062Z,4.28
2023-04-20T16:48:55.436Z,6.13
2023-04-20T16:54:01.608Z,3.75
2023-04-20T16:59:05.701Z,5.95
2023-04-20T17:04:09.383Z,6.75
2023-04-20T17:09:14.582Z,6.20
2023-04-20T17:14:18.097Z,5.18
2023-04-20T17:19:21.492Z,6.32
2023-04-20T17:24:26.103Z,5.57
2023-04-20T17:29:35.010Z,5.13
2023-04-20T17:34:40.048Z,5.70
2023-04-20T17:39:45.613Z,5.22
2023-04-20T17:44:49.585Z,4.70
2023-04-20T17:49:53.028Z,6.20
2023-04-20T17:55:02.413Z,5.78
2023-04-20T18:00:09.217Z,6.60
2023-04-20T18:05:16.300Z,6.13
2023-04-20T18:10:21.396Z,5.88
2023-04-20T18:15:25.694Z,6.43
2023-04-20T18:20:31.140Z,5.95
2023-04-20T18:25:37.944Z,6.82
2023-04-20T18:30:44.943Z,8.25
2023-04-20T18:35:48.991Z,8.88
2023-04-20T18:40:54.869Z,8.07
2023-04-20T18:45:59.072Z,7.20
2023-04-20T18:51:03.928Z,10.02
2023-04-20T18:56:10.293Z,9.10
2023-04-20T19:01:14.901Z,8.25
2023-04-20T19:06:20.156Z,9.27
2023-04-20T19:11:26.678Z,8.10
2023-04-20T19:16:32.637Z,8.82
2023-04-20T19:21:39.640Z,9.13
2023-04-20T19:26:46.282Z,8.13
2023-04-20T19:31:51.991Z,7.30
2023-04-20T19:36:56.484Z,10.32
2023-04-20T19:42:01.984Z,9.63
2023-04-20T19:47:06.722Z,7.75
2023-04-20T19:52:10.616Z,9.43
2023-04-20T19:57:16.580Z,8.07
2023-04-20T20:02:21.069Z,7.95
2023-04-20T20:07:26.824Z,9.35
2023-04-20T20:12:32.032Z,10.45
2023-04-20T20:17:37.891Z,8.90
2023-04-20T20:22:41.581Z,7.40
2023-04-20T20:27:47.227Z,9.80
2023-04-20T20:32:51.276Z,11.35
2023-04-20T20:37:55.972Z,9.70
2023-04-20T20:43:00.877Z,10.88
2023-04-20T20:48:04.257Z,12.15
2023-04-20T20:53:07.651Z,9.43
2023-04-20T20:58:12.280Z,12.88
2023-04-20T21:03:15.743Z,11.25
2023-04-20T21:08:19.116Z,9.93
2023-04-20T21:13:23.884Z,10.07
2023-04-20T21:18:28.499Z,9.15
2023-04-20T21:23:31.818Z,9.27
2023-04-20T21:28:36.429Z,10.18
2023-04-20T21:33:39.867Z,12.82
2023-04-20T21:38:43.121Z,12.73
2023-04-20T21:43:47.803Z,9.45
2023-04-20T21:48:52.183Z,9.77
2023-04-20T21:53:55.752Z,7.80
2023-04-20T21:59:00.323Z,12.30
2023-04-20T22:04:04.648Z,10.20
2023-04-20T22:09:08.121Z,9.07
2023-04-20T22:14:12.771Z,10.52
2023-04-20T22:19:16.362Z,8.20
2023-04-20T22:24:19.793Z,10.15
2023-04-20T22:29:24.506Z,9.73
2023-04-20T22:34:27.755Z,8.88
2023-04-20T22:39:31.000Z,9.70
2023-04-20T22:44:35.560Z,8.40
2023-04-20T22:49:38.761Z,7.80
2023-04-20T22:54:42.021Z,8.68
2023-04-20T22:59:46.707Z,6.72
2023-04-20T23:04:49.987Z,8.38
2023-04-20T23:09:53.852Z,7.75
2023-04-20T23:15:00.673Z,7.68
2023-04-20T23:20:04.512Z,10.15
2023-04-20T23:25:09.895Z,7.53
2023-04-20T23:30:15.427Z,7.47
2023-04-20T23:35:19.814Z,7.60
2023-04-20T23:40:23.220Z,6.55
2023-04-20T23:45:28.573Z,8.43
2023-04-20T23:50:32.201Z,8.90
2023-04-20T23:55:35.601Z,8.02
